createdAt,value
2024-03-08T00:00:52.498Z,6.00
2024-03-08T00:03:20.570Z,6.00
2024-03-08T00:05:48.656Z,6.00
2024-03-08T00:08:16.753Z,6.00
2024-03-08T00:10:44.891Z,6.00
2024-03-08T00:13:14.224Z,5.90
2024-03-08T00:15:42.379Z,5.90
2024-03-08T00:18:11.470Z,5.90
2024-03-08T00:20:39.737Z,5.80
2024-03-08T00:23:07.671Z,5.90
2024-03-08T00:25:36.862Z,5.90
2024-03-08T00:28:05.833Z,5.80
2024-03-08T00:30:35.574Z,5.80
2024-03-08T00:33:03.820Z,5.80
2024-03-08T00:35:32.379Z,5.80
2024-03-08T00:37:59.277Z,5.80
2024-03-08T00:40:27.173Z,5.80
2024-03-08T00:42:54.442Z,5.80
2024-03-08T00:45:23.257Z,5.80
2024-03-08T00:47:52.602Z,5.80
2024-03-08T00:50:20.513Z,5.70
2024-03-08T00:52:48.598Z,5.70
2024-03-08T00:55:16.551Z,5.70
2024-03-08T00:57:44.414Z,5.70
2024-03-08T01:00:13.993Z,5.70
2024-03-08T01:02:42.207Z,5.70
2024-03-08T01:05:11.793Z,5.70
2024-03-08T01:07:39.694Z,5.60
2024-03-08T01:10:10.958Z,5.60
2024-03-08T01:12:39.099Z,5.60
2024-03-08T01:15:08.311Z,5.60
2024-03-08T01:17:36.458Z,5.60
2024-03-08T01:20:04.698Z,5.60
2024-03-08T01:22:33.957Z,5.60
2024-03-08T01:25:01.820Z,5.60
2024-03-08T01:27:29.666Z,5.60
2024-03-08T01:29:57.616Z,5.60
2024-03-08T01:32:25.497Z,5.60
2024-03-08T01:34:53.348Z,5.50
2024-03-08T01:37:21.226Z,5.50
2024-03-08T01:39:50.462Z,5.50
2024-03-08T01:42:18.756Z,5.50
2024-03-08T01:44:46.830Z,5.50
2024-03-08T01:47:14.806Z,5.50
2024-03-08T01:49:43.060Z,5.50
2024-03-08T01:52:11.128Z,5.50
2024-03-08T01:54:39.409Z,5.50
2024-03-08T01:57:08.986Z,5.40
2024-03-08T01:59:37.305Z,5.50
2024-03-08T02:02:09.945Z,5.40
2024-03-08T02:04:39.991Z,5.40
2024-03-08T02:07:11.150Z,5.40
2024-03-08T02:09:40.321Z,5.40
2024-03-08T02:12:10.244Z,5.40
2024-03-08T02:14:41.271Z,5.40
2024-03-08T02:17:09.492Z,5.40
2024-03-08T02:19:37.617Z,5.40
2024-03-08T02:22:08.078Z,5.30
2024-03-08T02:24:36.012Z,5.30
2024-03-08T02:27:04.083Z,5.40
2024-03-08T02:29:33.415Z,5.30
2024-03-08T02:32:01.269Z,5.30
2024-03-08T02:34:29.346Z,5.30
2024-03-08T02:36:58.049Z,5.30
2024-03-08T02:39:28.787Z,5.30
2024-03-08T02:41:57.275Z,5.30
2024-03-08T02:44:25.189Z,5.30
2024-03-08T02:46:56.036Z,5.30
2024-03-08T02:49:24.001Z,5.30
2024-03-08T02:51:52.060Z,5.20
2024-03-08T02:54:20.357Z,5.20
2024-03-08T02:56:51.235Z,5.20
2024-03-08T02:59:19.880Z,5.20
2024-03-08T03:01:47.805Z,5.20
2024-03-08T03:04:15.828Z,5.20
2024-03-08T03:06:43.674Z,5.20
2024-03-08T03:09:12.084Z,5.10
2024-03-08T03:11:40.087Z,5.10
2024-03-08T03:14:10.153Z,5.10
2024-03-08T03:16:38.012Z,5.10
2024-03-08T03:19:06.442Z,5.10
2024-03-08T03:21:36.846Z,5.00
2024-03-08T03:24:05.410Z,5.00
2024-03-08T03:26:33.378Z,5.00
2024-03-08T03:29:01.757Z,5.00
2024-03-08T03:31:31.297Z,5.00
2024-03-08T03:34:02.816Z,5.00
2024-03-08T03:36:30.939Z,5.00
2024-03-08T03:39:08.090Z,4.90
2024-03-08T03:41:36.056Z,4.90
2024-03-08T03:44:03.988Z,4.90
2024-03-08T03:46:33.248Z,4.90
2024-03-08T03:49:01.123Z,4.90
2024-03-08T03:51:30.299Z,4.90
2024-03-08T03:53:58.564Z,4.80
2024-03-08T03:56:28.587Z,4.80
2024-03-08T03:58:56.485Z,4.80
2024-03-08T04:01:25.079Z,4.80
2024-03-08T04:03:54.464Z,4.80
2024-03-08T04:06:23.611Z,4.80
2024-03-08T04:08:51.700Z,4.80
2024-03-08T04:11:19.693Z,4.80
2024-03-08T04:13:47.673Z,4.80
2024-03-08T04:16:15.716Z,4.80
2024-03-08T04:18:44.366Z,4.70
2024-03-08T04:21:13.782Z,4.70
2024-03-08T04:23:41.925Z,4.70
2024-03-08T04:26:10.088Z,4.70
2024-03-08T04:28:38.404Z,4.70
2024-03-08T04:31:06.336Z,4.70
2024-03-08T04:33:36.663Z,4.70
2024-03-08T04:36:05.398Z,4.70
2024-03-08T04:38:35.391Z,4.70
2024-03-08T04:41:03.358Z,4.70
2024-03-08T04:43:31.459Z,4.60
2024-03-08T04:45:59.599Z,4.60
2024-03-08T04:48:27.772Z,4.60
2024-03-08T04:50:56.728Z,4.60
2024-03-08T04:53:24.664Z,4.60
2024-03-08T04:55:53.874Z,4.60
2024-03-08T04:58:21.932Z,4.50
2024-03-08T05:00:49.873Z,4.50
2024-03-08T05:03:18.704Z,4.50
2024-03-08T05:05:46.620Z,4.50
2024-03-08T05:08:14.569Z,4.40
2024-03-08T05:10:42.490Z,4.40
2024-03-08T05:13:11.729Z,4.40
2024-03-08T05:15:40.275Z,4.40
2024-03-08T05:18:09.658Z,4.30
2024-03-08T05:20:38.295Z,4.30
2024-03-08T05:23:06.558Z,4.30
2024-03-08T05:25:34.444Z,4.20
2024-03-08T05:28:02.308Z,4.20
2024-03-08T05:30:32.926Z,4.20
2024-03-08T05:33:01.132Z,4.20
2024-03-08T05:35:29.127Z,4.20
2024-03-08T05:37:56.989Z,4.10
2024-03-08T05:40:25.194Z,4.10
2024-03-08T05:42:53.051Z,4.10
2024-03-08T05:45:21.027Z,4.10
2024-03-08T05:47:50.398Z,4.10
2024-03-08T05:50:18.578Z,4.00
2024-03-08T05:52:46.447Z,4.00
2024-03-08T05:55:15.353Z,4.00
2024-03-08T05:57:43.430Z,4.00
2024-03-08T06:00:12.821Z,4.00
2024-03-08T06:02:42.448Z,4.00
2024-03-08T06:05:12.996Z,3.90
2024-03-08T06:07:41.339Z,3.90
2024-03-08T06:10:12.120Z,3.90
2024-03-08T06:12:42.676Z,3.90
2024-03-08T06:15:15.472Z,3.80
2024-03-08T06:17:43.821Z,3.90
2024-03-08T06:20:14.712Z,3.80
2024-03-08T06:22:45.440Z,3.90
2024-03-08T06:25:15.039Z,3.80
2024-03-08T06:27:43.574Z,3.90
2024-03-08T06:30:13.075Z,3.80
2024-03-08T06:32:41.345Z,3.90
2024-03-08T06:35:11.565Z,3.80
2024-03-08T06:37:40.767Z,3.90
2024-03-08T06:40:14.626Z,3.90
2024-03-08T06:42:42.784Z,3.90
2024-03-08T06:45:11.528Z,4.00
2024-03-08T06:47:39.520Z,4.00
2024-03-08T06:50:09.269Z,4.00
2024-03-08T06:52:37.219Z,4.10
2024-03-08T06:55:07.434Z,4.20
2024-03-08T06:57:35.686Z,4.20
2024-03-08T07:00:03.686Z,4.30
2024-03-08T07:02:33.658Z,4.30
2024-03-08T07:05:02.651Z,4.40
2024-03-08T07:07:31.336Z,4.50
2024-03-08T07:09:59.235Z,4.60
2024-03-08T07:12:28.529Z,4.60
2024-03-08T07:14:56.766Z,4.70
2024-03-08T07:17:25.495Z,4.70
2024-03-08T07:19:55.140Z,4.80
2024-03-08T07:22:24.518Z,4.80
2024-03-08T07:25:05.982Z,4.90
2024-03-08T07:27:37.269Z,4.90
2024-03-08T07:30:09.150Z,5.00
2024-03-08T07:32:37.377Z,5.00
2024-03-08T07:35:06.090Z,5.10
2024-03-08T07:37:34.164Z,5.10
2024-03-08T07:40:02.165Z,5.20
2024-03-08T07:42:30.786Z,5.20
2024-03-08T07:45:00.989Z,5.30
2024-03-08T07:47:29.001Z,5.30
2024-03-08T07:49:57.874Z,5.40
2024-03-08T07:52:26.981Z,5.40
2024-03-08T07:54:55.906Z,5.40
2024-03-08T07:57:23.931Z,5.50
2024-03-08T07:59:52.093Z,5.60
2024-03-08T08:02:21.410Z,5.60
2024-03-08T08:04:49.364Z,5.70
2024-03-08T08:07:17.446Z,5.70
2024-03-08T08:09:45.358Z,5.80
2024-03-08T08:12:13.854Z,5.90
2024-03-08T08:14:42.269Z,6.00
2024-03-08T08:17:10.674Z,6.00
2024-03-08T08:19:40.259Z,6.10
2024-03-08T08:22:10.016Z,6.20
2024-03-08T08:24:38.795Z,6.30
2024-03-08T08:27:07.761Z,6.40
2024-03-08T08:29:36.563Z,6.50
2024-03-08T08:32:04.898Z,6.50
2024-03-08T08:34:32.920Z,6.60
2024-03-08T08:37:02.493Z,6.70
2024-03-08T08:39:30.546Z,6.80
2024-03-08T08:41:58.882Z,6.90
2024-03-08T08:44:27.020Z,7.00
2024-03-08T08:46:59.595Z,7.40
2024-03-08T08:49:31.746Z,8.00
2024-03-08T08:52:06.519Z,9.00
2024-03-08T08:54:41.145Z,10.20
2024-03-08T08:57:09.106Z,11.60
2024-03-08T08:59:37.799Z,13.00
2024-03-08T09:02:05.986Z,14.50
2024-03-08T09:04:34.237Z,15.90
2024-03-08T09:07:02.518Z,17.20
2024-03-08T09:09:30.688Z,18.50
2024-03-08T09:12:00.029Z,19.60
2024-03-08T09:14:28.007Z,20.80
2024-03-08T09:16:56.134Z,21.70
2024-03-08T09:19:26.934Z,22.60
2024-03-08T09:21:55.432Z,23.40
2024-03-08T09:24:23.358Z,24.00
2024-03-08T09:26:51.237Z,24.70
2024-03-08T09:29:20.478Z,25.30
2024-03-08T09:31:48.412Z,25.90
2024-03-08T09:34:20.581Z,26.40
2024-03-08T09:36:53.759Z,27.00
2024-03-08T09:39:23.510Z,27.60
2024-03-08T09:41:52.426Z,28.10
2024-03-08T09:44:21.770Z,28.60
2024-03-08T09:46:49.870Z,28.90
2024-03-08T09:49:18.207Z,29.30
2024-03-08T09:51:47.080Z,29.50
2024-03-08T09:54:22.926Z,29.80
2024-03-08T09:56:54.636Z,30.10
2024-03-08T09:59:45.253Z,30.30
2024-03-08T10:02:17.878Z,30.50
2024-03-08T10:04:47.683Z,30.70
2024-03-08T10:07:16.623Z,30.90
2024-03-08T10:09:50.426Z,31.10
2024-03-08T10:12:20.316Z,31.30
2024-03-08T10:14:49.581Z,31.50
2024-03-08T10:17:17.504Z,31.60
2024-03-08T10:19:52.908Z,31.90
2024-03-08T10:22:21.014Z,32.20
2024-03-08T10:24:49.826Z,32.40
2024-03-08T10:27:19.345Z,32.50
2024-03-08T10:29:52.692Z,32.70
2024-03-08T10:32:21.500Z,32.90
2024-03-08T10:34:51.165Z,33.00
2024-03-08T10:37:25.291Z,33.10
2024-03-08T10:40:11.130Z,33.10
2024-03-08T10:42:43.249Z,33.10
2024-03-08T10:45:22.671Z,33.10
2024-03-08T10:47:51.901Z,33.10
2024-03-08T10:50:22.506Z,33.00
2024-03-08T10:52:52.214Z,33.00
2024-03-08T10:55:21.380Z,33.00
2024-03-08T10:57:49.690Z,33.00
2024-03-08T11:00:26.933Z,33.00
2024-03-08T11:02:55.458Z,33.00
2024-03-08T11:05:36.290Z,33.00
2024-03-08T11:08:06.753Z,33.00
2024-03-08T11:10:34.767Z,33.00
2024-03-08T11:13:03.036Z,33.00
2024-03-08T11:15:33.030Z,33.00
2024-03-08T11:18:02.222Z,33.00
2024-03-08T11:20:33.394Z,33.00
2024-03-08T11:23:08.383Z,33.00
2024-03-08T11:25:42.692Z,33.10
2024-03-08T11:28:17.968Z,33.10
2024-03-08T11:31:27.746Z,33.10
2024-03-08T11:33:56.177Z,33.10
2024-03-08T11:36:25.415Z,33.10
2024-03-08T11:38:56.282Z,33.10
2024-03-08T11:41:25.947Z,33.10
2024-03-08T11:44:06.117Z,33.10
2024-03-08T11:46:36.717Z,33.10
2024-03-08T11:49:06.664Z,33.10
2024-03-08T11:51:34.937Z,33.10
2024-03-08T11:54:03.701Z,33.00
2024-03-08T11:56:33.097Z,32.90
2024-03-08T11:59:01.872Z,32.80
2024-03-08T12:01:29.867Z,32.70
2024-03-08T12:04:02.368Z,32.60
2024-03-08T12:06:41.036Z,32.40
2024-03-08T12:09:13.877Z,32.30
2024-03-08T12:11:42.148Z,32.10
2024-03-08T12:14:11.292Z,31.90
2024-03-08T12:16:39.452Z,31.80
2024-03-08T12:19:10.542Z,31.60
2024-03-08T12:21:38.775Z,31.40
2024-03-08T12:24:10.414Z,31.20
2024-03-08T12:26:39.546Z,31.00
2024-03-08T12:29:28.626Z,30.70
2024-03-08T12:31:59.410Z,30.50
2024-03-08T12:34:29.378Z,30.40
2024-03-08T12:36:57.411Z,30.30
2024-03-08T12:39:27.940Z,30.30
2024-03-08T12:41:58.013Z,30.20
2024-03-08T12:44:27.014Z,30.10
2024-03-08T12:46:55.547Z,30.00
2024-03-08T12:49:24.403Z,29.80
2024-03-08T12:51:54.557Z,29.70
2024-03-08T12:54:24.438Z,29.60
2024-03-08T12:56:54.504Z,29.40
2024-03-08T12:59:23.337Z,29.30
2024-03-08T13:01:52.500Z,29.20
2024-03-08T13:04:22.277Z,29.10
2024-03-08T13:06:54.371Z,29.10
2024-03-08T13:09:25.247Z,29.00
2024-03-08T13:11:55.136Z,28.90
2024-03-08T13:14:23.413Z,28.80
2024-03-08T13:16:52.770Z,28.70
2024-03-08T13:19:22.820Z,28.60
2024-03-08T13:21:51.119Z,28.40
2024-03-08T13:24:19.946Z,28.20
2024-03-08T13:26:50.972Z,28.20
2024-03-08T13:29:19.623Z,28.00
2024-03-08T13:31:52.689Z,27.80
2024-03-08T13:34:28.749Z,27.80
2024-03-08T13:37:01.150Z,27.80
2024-03-08T13:39:30.275Z,27.70
2024-03-08T13:41:59.592Z,27.70
2024-03-08T13:44:28.983Z,27.70
2024-03-08T13:46:59.161Z,27.70
2024-03-08T13:49:27.492Z,27.70
2024-03-08T13:51:56.036Z,27.70
2024-03-08T13:54:24.096Z,27.70
2024-03-08T13:56:55.154Z,27.70
2024-03-08T13:59:25.358Z,27.60
2024-03-08T14:01:53.323Z,27.60
2024-03-08T14:04:21.383Z,27.50
2024-03-08T14:06:50.263Z,27.40
2024-03-08T14:09:18.833Z,27.30
2024-03-08T14:11:46.890Z,27.20
2024-03-08T14:14:14.927Z,27.10
2024-03-08T14:16:44.415Z,27.00
2024-03-08T14:19:12.312Z,26.90
2024-03-08T14:21:40.661Z,26.80
2024-03-08T14:24:08.942Z,26.70
2024-03-08T14:26:39.497Z,26.60
2024-03-08T14:29:07.884Z,26.50
2024-03-08T14:31:36.980Z,26.40
2024-03-08T14:34:06.445Z,26.30
2024-03-08T14:36:34.416Z,26.20
2024-03-08T14:39:02.603Z,26.20
2024-03-08T14:41:30.939Z,26.00
2024-03-08T14:43:59.011Z,26.00
2024-03-08T14:46:27.746Z,26.00
2024-03-08T14:48:55.642Z,25.70
2024-03-08T14:51:27.208Z,25.70
2024-03-08T14:53:55.606Z,25.50
2024-03-08T14:56:23.926Z,25.30
2024-03-08T14:58:52.712Z,25.10
2024-03-08T15:01:23.457Z,24.70
2024-03-08T15:03:51.655Z,24.60
2024-03-08T15:06:22.080Z,24.30
2024-03-08T15:08:52.865Z,24.20
2024-03-08T15:11:26.094Z,24.10
2024-03-08T15:13:54.607Z,24.10
2024-03-08T15:16:24.905Z,24.10
2024-03-08T15:18:54.520Z,24.10
2024-03-08T15:21:23.628Z,24.10
2024-03-08T15:23:54.922Z,24.10
2024-03-08T15:26:22.871Z,24.10
2024-03-08T15:28:52.909Z,24.10
2024-03-08T15:31:22.520Z,24.00
2024-03-08T15:33:52.729Z,23.90
2024-03-08T15:36:22.237Z,23.80
2024-03-08T15:38:53.201Z,23.70
2024-03-08T15:41:22.826Z,23.50
2024-03-08T15:43:51.885Z,23.30
2024-03-08T15:46:23.472Z,23.20
2024-03-08T15:48:52.499Z,23.10
2024-03-08T15:51:21.168Z,23.00
2024-03-08T15:53:54.364Z,23.00
2024-03-08T15:56:24.778Z,22.90
2024-03-08T15:58:53.221Z,22.70
2024-03-08T16:01:23.589Z,22.50
2024-03-08T16:03:51.768Z,22.30
2024-03-08T16:06:22.347Z,22.20
2024-03-08T16:08:50.448Z,22.10
2024-03-08T16:11:19.773Z,21.90
2024-03-08T16:13:50.359Z,21.80
2024-03-08T16:16:19.025Z,21.60
2024-03-08T16:18:46.974Z,21.40
2024-03-08T16:21:15.519Z,21.30
2024-03-08T16:23:44.863Z,21.10
2024-03-08T16:26:14.245Z,21.00
2024-03-08T16:28:43.382Z,20.80
2024-03-08T16:31:15.739Z,20.60
2024-03-08T16:33:45.344Z,20.50
2024-03-08T16:36:14.665Z,20.30
2024-03-08T16:38:45.810Z,20.20
2024-03-08T16:41:14.616Z,20.00
2024-03-08T16:43:44.959Z,19.80
2024-03-08T16:46:14.550Z,19.60
2024-03-08T16:48:43.211Z,19.40
2024-03-08T16:51:12.134Z,19.30
2024-03-08T16:53:42.023Z,19.00
2024-03-08T16:56:13.471Z,18.70
2024-03-08T16:58:43.868Z,18.50
2024-03-08T17:01:12.111Z,18.20
2024-03-08T17:03:48.305Z,17.90
2024-03-08T17:06:25.130Z,17.70
2024-03-08T17:08:54.725Z,17.40
2024-03-08T17:11:23.274Z,17.20
2024-03-08T17:13:51.513Z,17.00
2024-03-08T17:16:25.206Z,16.80
2024-03-08T17:18:54.672Z,16.70
2024-03-08T17:21:22.728Z,16.40
2024-03-08T17:23:50.819Z,16.30
2024-03-08T17:26:19.619Z,16.10
2024-03-08T17:28:48.809Z,16.00
2024-03-08T17:31:16.858Z,15.80
2024-03-08T17:33:44.765Z,15.70
2024-03-08T17:36:16.932Z,15.50
2024-03-08T17:38:48.855Z,15.40
2024-03-08T17:41:23.136Z,15.20
2024-03-08T17:43:51.748Z,15.10
2024-03-08T17:46:20.388Z,15.00
2024-03-08T17:48:48.379Z,14.80
2024-03-08T17:51:17.655Z,14.70
2024-03-08T17:53:47.485Z,14.60
2024-03-08T17:56:16.316Z,14.50
2024-03-08T17:58:44.340Z,14.30
2024-03-08T18:01:15.603Z,14.20
2024-03-08T18:03:43.579Z,14.10
2024-03-08T18:06:11.480Z,14.00
2024-03-08T18:08:43.692Z,13.80
2024-03-08T18:11:11.712Z,13.70
2024-03-08T18:13:39.787Z,13.50
2024-03-08T18:16:08.883Z,13.50
2024-03-08T18:18:37.954Z,13.30
2024-03-08T18:21:07.086Z,13.20
2024-03-08T18:23:35.054Z,13.00
2024-03-08T18:26:04.559Z,12.90
2024-03-08T18:28:32.620Z,12.70
2024-03-08T18:31:01.437Z,12.60
2024-03-08T18:33:33.323Z,12.50
2024-03-08T18:36:01.315Z,12.40
2024-03-08T18:38:29.240Z,12.30
2024-03-08T18:40:58.737Z,12.10
2024-03-08T18:43:28.916Z,12.00
2024-03-08T18:45:58.485Z,11.90
2024-03-08T18:48:27.596Z,11.80
2024-03-08T18:50:55.641Z,11.70
2024-03-08T18:53:24.238Z,11.60
2024-03-08T18:55:52.733Z,11.50
2024-03-08T18:58:27.504Z,11.40
2024-03-08T19:01:06.469Z,11.30
2024-03-08T19:03:35.684Z,11.30
2024-03-08T19:06:04.168Z,11.10
2024-03-08T19:08:33.921Z,11.10
2024-03-08T19:11:02.208Z,11.00
2024-03-08T19:13:30.243Z,10.90
2024-03-08T19:15:58.276Z,10.90
2024-03-08T19:18:28.446Z,10.70
2024-03-08T19:20:57.513Z,10.70
2024-03-08T19:23:25.671Z,10.70
2024-03-08T19:25:53.750Z,10.60
2024-03-08T19:28:22.633Z,10.50
2024-03-08T19:30:53.567Z,10.50
2024-03-08T19:33:22.084Z,10.40
2024-03-08T19:35:51.619Z,10.30
2024-03-08T19:38:20.970Z,10.30
2024-03-08T19:40:49.880Z,10.20
2024-03-08T19:43:17.913Z,10.20
2024-03-08T19:45:46.449Z,10.10
2024-03-08T19:48:19.286Z,10.10
2024-03-08T19:50:47.914Z,10.00
2024-03-08T19:53:18.760Z,10.00
2024-03-08T19:55:50.519Z,9.90
2024-03-08T19:58:19.910Z,9.80
2024-03-08T20:00:48.796Z,9.80
2024-03-08T20:03:22.376Z,9.70
2024-03-08T20:05:52.525Z,9.70
2024-03-08T20:08:23.928Z,9.60
2024-03-08T20:10:53.123Z,9.60
2024-03-08T20:13:21.374Z,9.60
2024-03-08T20:15:54.810Z,9.50
2024-03-08T20:18:27.017Z,9.50
2024-03-08T20:20:55.360Z,9.40
2024-03-08T20:23:25.204Z,9.40
2024-03-08T20:25:53.604Z,9.40
2024-03-08T20:28:22.636Z,9.30
2024-03-08T20:30:50.524Z,9.30
2024-03-08T20:33:18.422Z,9.30
2024-03-08T20:35:47.262Z,9.20
2024-03-08T20:38:21.264Z,9.20
2024-03-08T20:40:51.449Z,9.20
2024-03-08T20:43:22.799Z,9.10
2024-03-08T20:45:51.513Z,9.10
2024-03-08T20:48:21.492Z,9.10
2024-03-08T20:50:51.922Z,9.10
2024-03-08T20:53:20.787Z,9.00
2024-03-08T20:55:51.667Z,9.10
2024-03-08T20:58:20.350Z,9.00
2024-03-08T21:00:55.070Z,9.00
2024-03-08T21:03:24.859Z,9.00
2024-03-08T21:05:54.709Z,9.00
2024-03-08T21:08:27.758Z,9.00
2024-03-08T21:10:58.905Z,9.00
2024-03-08T21:13:28.234Z,8.90
2024-03-08T21:15:57.381Z,8.90
2024-03-08T21:18:26.215Z,8.90
2024-03-08T21:20:54.564Z,8.90
2024-03-08T21:23:22.542Z,8.80
2024-03-08T21:25:50.624Z,8.90
2024-03-08T21:28:20.144Z,8.80
2024-03-08T21:30:48.235Z,8.80
2024-03-08T21:33:16.252Z,8.70
2024-03-08T21:35:44.224Z,8.70
2024-03-08T21:38:12.705Z,8.70
2024-03-08T21:40:57.060Z,8.60
2024-03-08T21:43:34.401Z,8.60
2024-03-08T21:46:03.065Z,8.60
2024-03-08T21:48:31.525Z,8.50
2024-03-08T21:50:59.498Z,8.50
2024-03-08T21:53:33.787Z,8.50
2024-03-08T21:56:03.815Z,8.40
2024-03-08T21:58:34.933Z,8.40
2024-03-08T22:01:03.273Z,8.40
2024-03-08T22:03:33.839Z,8.30
2024-03-08T22:06:05.288Z,8.30
2024-03-08T22:08:34.464Z,8.30
2024-03-08T22:11:02.640Z,8.20
2024-03-08T22:13:30.727Z,8.20
2024-03-08T22:16:00.019Z,8.20
2024-03-08T22:18:33.122Z,8.20
2024-03-08T22:21:01.166Z,8.10
2024-03-08T22:23:29.208Z,8.10
2024-03-08T22:25:57.830Z,8.10
2024-03-08T22:28:26.974Z,8.10
2024-03-08T22:30:55.360Z,8.10
2024-03-08T22:33:25.960Z,8.00
2024-03-08T22:35:54.856Z,8.00
2024-03-08T22:38:23.032Z,8.00
2024-03-08T22:40:51.207Z,8.00
2024-03-08T22:43:19.432Z,7.90
2024-03-08T22:45:49.804Z,7.90
2024-03-08T22:48:17.773Z,7.90
2024-03-08T22:50:47.084Z,7.80
2024-03-08T22:53:15.763Z,7.80
2024-03-08T22:55:43.835Z,7.80
2024-03-08T22:58:11.783Z,7.80
2024-03-08T23:00:55.695Z,7.80
2024-03-08T23:03:24.850Z,7.70
2024-03-08T23:05:55.799Z,7.70
2024-03-08T23:08:24.556Z,7.70
2024-03-08T23:10:52.830Z,7.70
2024-03-08T23:13:20.882Z,7.70
2024-03-08T23:15:48.801Z,7.60
2024-03-08T23:18:17.233Z,7.70
2024-03-08T23:20:45.184Z,7.60
2024-03-08T23:23:14.824Z,7.60
2024-03-08T23:25:45.901Z,7.60
2024-03-08T23:28:14.271Z,7.60
2024-03-08T23:30:44.413Z,7.60
2024-03-08T23:33:15.601Z,7.60
2024-03-08T23:35:45.484Z,7.60
2024-03-08T23:38:15.672Z,7.50
2024-03-08T23:40:43.851Z,7.50
2024-03-08T23:43:11.814Z,7.50
2024-03-08T23:45:40.107Z,7.50
2024-03-08T23:48:08.896Z,7.50
2024-03-08T23:50:38.098Z,7.50
2024-03-08T23:53:08.553Z,7.50
2024-03-08T23:55:39.762Z,7.50
2024-03-08T23:58:10.929Z,7.50
